sensor_id;sensor_type;location;lat;lon;timestamp;temperature;humidity
3614;DHT22;1821;50.936;6.854;2022-08-05T00:00:34;22.20;99.90
3614;DHT22;1821;50.936;6.854;2022-08-05T00:01:31;22.10;99.90
3614;DHT22;1821;50.936;6.854;2022-08-05T00:02:17;22.20;99.90
3614;DHT22;1821;50.936;6.854;2022-08-05T00:03:01;22.20;99.90
3614;DHT22;1821;50.936;6.854;2022-08-05T00:03:50;22.10;99.90
3614;DHT22;1821;50.936;6.854;2022-08-05T00:04:32;22.20;99.90
3614;DHT22;1821;50.936;6.854;2022-08-05T00:05:14;22.10;99.90
3614;DHT22;1821;50.936;6.854;2022-08-05T00:06:16;22.10;99.90
3614;DHT22;1821;50.936;6.854;2022-08-05T00:07:12;22.10;99.90
3614;DHT22;1821;50.936;6.854;2022-08-05T00:08:14;22.10;99.90
3614;DHT22;1821;50.936;6.854;2022-08-05T00:09:13;22.00;99.90
3614;DHT22;1821;50.936;6.854;2022-08-05T00:10:00;22.00;99.90
3614;DHT22;1821;50.936;6.854;2022-08-05T00:10:42;22.00;99.90
3614;DHT22;1821;50.936;6.854;2022-08-05T00:11:24;22.00;99.90
3614;DHT22;1821;50.936;6.854;2022-08-05T00:12:26;22.00;99.90
3614;DHT22;1821;50.936;6.854;2022-08-05T00:13:08;21.90;99.90
3614;DHT22;1821;50.936;6.854;2022-08-05T00:13:59;22.00;99.90
3614;DHT22;1821;50.936;6.854;2022-08-05T00:14:42;22.00;99.90
3614;DHT22;1821;50.936;6.854;2022-08-05T00:15:25;22.00;99.90
3614;DHT22;1821;50.936;6.854;2022-08-05T00:16:27;22.00;99.90
3614;DHT22;1821;50.936;6.854;2022-08-05T00:17:29;22.10;99.90
3614;DHT22;1821;50.936;6.854;2022-08-05T00:18:11;21.90;99.90
3614;DHT22;1821;50.936;6.854;2022-08-05T00:19:03;22.00;99.90
3614;DHT22;1821;50.936;6.854;2022-08-05T00:19:46;22.00;99.90
3614;DHT22;1821;50.936;6.854;2022-08-05T00:20:43;22.00;99.90
3614;DHT22;1821;50.936;6.854;2022-08-05T00:21:29;22.00;99.90
3614;DHT22;1821;50.936;6.854;2022-08-05T00:22:16;22.10;99.90
3614;DHT22;1821;50.936;6.854;2022-08-05T00:22:58;22.00;99.90
3614;DHT22;1821;50.936;6.854;2022-08-05T00:23:53;22.00;99.90
3614;DHT22;1821;50.936;6.854;2022-08-05T00:24:51;21.90;99.90
3614;DHT22;1821;50.936;6.854;2022-08-05T00:25:35;21.90;99.90
3614;DHT22;1821;50.936;6.854;2022-08-05T00:26:26;21.80;99.90
3614;DHT22;1821;50.936;6.854;2022-08-05T00:27:11;21.70;99.90
3614;DHT22;1821;50.936;6.854;2022-08-05T00:27:57;21.70;99.90
3614;DHT22;1821;50.936;6.854;2022-08-05T00:28:39;21.70;99.90
3614;DHT22;1821;50.936;6.854;2022-08-05T00:29:21;21.70;99.90
3614;DHT22;1821;50.936;6.854;2022-08-05T00:30:06;21.80;99.90
3614;DHT22;1821;50.936;6.854;2022-08-05T00:30:52;21.70;99.90
3614;DHT22;1821;50.936;6.854;2022-08-05T00:31:34;21.70;99.90
3614;DHT22;1821;50.936;6.854;2022-08-05T00:32:36;21.80;99.90
3614;DHT22;1821;50.936;6.854;2022-08-05T00:33:20;21.80;99.90
3614;DHT22;1821;50.936;6.854;2022-08-05T00:34:22;21.80;99.90
3614;DHT22;1821;50.936;6.854;2022-08-05T00:35:24;21.90;99.90
3614;DHT22;1821;50.936;6.854;2022-08-05T00:36:13;21.90;99.90
3614;DHT22;1821;50.936;6.854;2022-08-05T00:37:15;21.90;99.90
3614;DHT22;1821;50.936;6.854;2022-08-05T00:37:57;21.90;99.90
3614;DHT22;1821;50.936;6.854;2022-08-05T00:38:39;21.90;99.90
3614;DHT22;1821;50.936;6.854;2022-08-05T00:39:21;21.90;99.90
3614;DHT22;1821;50.936;6.854;2022-08-05T00:40:06;21.90;99.90
3614;DHT22;1821;50.936;6.854;2022-08-05T00:40:52;21.90;99.90
3614;DHT22;1821;50.936;6.854;2022-08-05T00:41:35;21.90;99.90
3614;DHT22;1821;50.936;6.854;2022-08-05T00:42:36;21.90;99.90
3614;DHT22;1821;50.936;6.854;2022-08-05T00:43:19;21.90;99.90
3614;DHT22;1821;50.936;6.854;2022-08-05T00:44:00;21.90;99.90
3614;DHT22;1821;50.936;6.854;2022-08-05T00:44:42;21.90;99.90
3614;DHT22;1821;50.936;6.854;2022-08-05T00:45:24;21.90;99.90
3614;DHT22;1821;50.936;6.854;2022-08-05T00:46:19;21.90;99.90
3614;DHT22;1821;50.936;6.854;2022-08-05T00:47:21;21.80;99.90
3614;DHT22;1821;50.936;6.854;2022-08-05T00:48:03;21.80;99.90
3614;DHT22;1821;50.936;6.854;2022-08-05T00:48:46;21.80;99.90
3614;DHT22;1821;50.936;6.854;2022-08-05T00:49:32;21.80;99.90
3614;DHT22;1821;50.936;6.854;2022-08-05T00:50:32;21.70;99.90
3614;DHT22;1821;50.936;6.854;2022-08-05T00:51:14;21.80;99.90
3614;DHT22;1821;50.936;6.854;2022-08-05T00:52:15;21.80;99.90
3614;DHT22;1821;50.936;6.854;2022-08-05T00:52:58;21.60;99.90
3614;DHT22;1821;50.936;6.854;2022-08-05T00:53:40;21.60;99.90
3614;DHT22;1821;50.936;6.854;2022-08-05T00:54:41;21.60;99.90
3614;DHT22;1821;50.936;6.854;2022-08-05T00:55:23;21.60;99.90
3614;DHT22;1821;50.936;6.854;2022-08-05T00:56:23;21.60;99.90
3614;DHT22;1821;50.936;6.854;2022-08-05T00:57:05;21.50;99.90
3614;DHT22;1821;50.936;6.854;2022-08-05T00:57:47;21.50;99.90
3614;DHT22;1821;50.936;6.854;2022-08-05T00:58:39;21.50;99.90
3614;DHT22;1821;50.936;6.854;2022-08-05T00:59:25;21.60;99.90
3614;DHT22;1821;50.936;6.854;2022-08-05T01:00:15;21.70;99.90
3614;DHT22;1821;50.936;6.854;2022-08-05T01:00:57;21.60;99.90
3614;DHT22;1821;50.936;6.854;2022-08-05T01:01:39;21.60;99.90
3614;DHT22;1821;50.936;6.854;2022-08-05T01:02:28;21.60;99.90
3614;DHT22;1821;50.936;6.854;2022-08-05T01:03:11;21.60;99.90
3614;DHT22;1821;50.936;6.854;2022-08-05T01:04:03;21.60;99.90
3614;DHT22;1821;50.936;6.854;2022-08-05T01:04:56;21.60;99.90
3614;DHT22;1821;50.936;6.854;2022-08-05T01:05:38;21.60;99.90
3614;DHT22;1821;50.936;6.854;2022-08-05T01:06:20;21.70;99.90
3614;DHT22;1821;50.936;6.854;2022-08-05T01:07:12;21.70;99.90
3614;DHT22;1821;50.936;6.854;2022-08-05T01:07:58;21.60;99.90
3614;DHT22;1821;50.936;6.854;2022-08-05T01:09:00;21.60;99.90
3614;DHT22;1821;50.936;6.854;2022-08-05T01:09:43;21.60;99.90
3614;DHT22;1821;50.936;6.854;2022-08-05T01:11:38;21.60;99.90
3614;DHT22;1821;50.936;6.854;2022-08-05T01:12:22;21.50;99.90
3614;DHT22;1821;50.936;6.854;2022-08-05T01:13:17;21.50;99.90
3614;DHT22;1821;50.936;6.854;2022-08-05T01:14:12;21.50;99.90
3614;DHT22;1821;50.936;6.854;2022-08-05T01:15:05;21.40;99.90
3614;DHT22;1821;50.936;6.854;2022-08-05T01:16:13;21.50;99.90
3614;DHT22;1821;50.936;6.854;2022-08-05T01:17:11;21.40;99.90
3614;DHT22;1821;50.936;6.854;2022-08-05T01:18:04;21.30;99.90
3614;DHT22;1821;50.936;6.854;2022-08-05T01:18:51;21.30;99.90
3614;DHT22;1821;50.936;6.854;2022-08-05T01:19:41;21.30;99.90
3614;DHT22;1821;50.936;6.854;2022-08-05T01:20:59;21.20;99.90
3614;DHT22;1821;50.936;6.854;2022-08-05T01:22:53;21.10;99.90
3614;DHT22;1821;50.936;6.854;2022-08-05T01:23:56;21.20;99.90
3614;DHT22;1821;50.936;6.854;2022-08-05T01:25:16;21.20;99.90
3614;DHT22;1821;50.936;6.854;2022-08-05T01:26:32;21.10;99.90
3614;DHT22;1821;50.936;6.854;2022-08-05T01:28:51;21.10;99.90
3614;DHT22;1821;50.936;6.854;2022-08-05T01:29:40;21.10;99.90
3614;DHT22;1821;50.936;6.854;2022-08-05T01:30:30;21.10;99.90
3614;DHT22;1821;50.936;6.854;2022-08-05T01:31:28;21.00;99.90
3614;DHT22;1821;50.936;6.854;2022-08-05T01:32:25;21.10;99.90
3614;DHT22;1821;50.936;6.854;2022-08-05T01:33:09;21.00;99.90
3614;DHT22;1821;50.936;6.854;2022-08-05T01:34:20;21.00;99.90
3614;DHT22;1821;50.936;6.854;2022-08-05T01:35:14;21.10;99.90
3614;DHT22;1821;50.936;6.854;2022-08-05T01:36:17;21.00;99.90
3614;DHT22;1821;50.936;6.854;2022-08-05T01:37:23;21.10;99.90
3614;DHT22;1821;50.936;6.854;2022-08-05T01:38:07;21.10;99.90
3614;DHT22;1821;50.936;6.854;2022-08-05T01:39:05;21.20;99.90
3614;DHT22;1821;50.936;6.854;2022-08-05T01:39:51;21.20;99.90
3614;DHT22;1821;50.936;6.854;2022-08-05T01:40:39;21.00;99.90
3614;DHT22;1821;50.936;6.854;2022-08-05T01:41:23;21.10;99.90
3614;DHT22;1821;50.936;6.854;2022-08-05T01:42:07;21.10;99.90
3614;DHT22;1821;50.936;6.854;2022-08-05T01:42:56;21.00;99.90
3614;DHT22;1821;50.936;6.854;2022-08-05T01:43:38;21.00;99.90
3614;DHT22;1821;50.936;6.854;2022-08-05T01:44:24;20.90;99.90
3614;DHT22;1821;50.936;6.854;2022-08-05T01:45:19;20.80;99.90
3614;DHT22;1821;50.936;6.854;2022-08-05T01:46:02;20.90;99.90
3614;DHT22;1821;50.936;6.854;2022-08-05T01:46:57;20.80;99.90
3614;DHT22;1821;50.936;6.854;2022-08-05T01:47:41;20.90;99.90
3614;DHT22;1821;50.936;6.854;2022-08-05T01:48:26;20.80;99.90
3614;DHT22;1821;50.936;6.854;2022-08-05T01:49:10;20.70;99.90
3614;DHT22;1821;50.936;6.854;2022-08-05T01:50:08;20.60;99.90
3614;DHT22;1821;50.936;6.854;2022-08-05T01:50:56;20.60;99.90
3614;DHT22;1821;50.936;6.854;2022-08-05T01:51:57;20.60;99.90
3614;DHT22;1821;50.936;6.854;2022-08-05T01:52:40;20.70;99.90
3614;DHT22;1821;50.936;6.854;2022-08-05T01:53:24;20.70;99.90
3614;DHT22;1821;50.936;6.854;2022-08-05T01:54:34;20.70;99.90
3614;DHT22;1821;50.936;6.854;2022-08-05T01:55:28;20.60;99.90
3614;DHT22;1821;50.936;6.854;2022-08-05T01:56:18;20.60;99.90
3614;DHT22;1821;50.936;6.854;2022-08-05T01:57:27;20.60;99.90
3614;DHT22;1821;50.936;6.854;2022-08-05T01:58:30;20.60;99.90
3614;DHT22;1821;50.936;6.854;2022-08-05T01:59:25;20.50;99.90
3614;DHT22;1821;50.936;6.854;2022-08-05T02:00:11;20.50;99.90
3614;DHT22;1821;50.936;6.854;2022-08-05T02:00:56;20.40;99.90
3614;DHT22;1821;50.936;6.854;2022-08-05T02:01:39;20.30;99.90
3614;DHT22;1821;50.936;6.854;2022-08-05T02:02:22;20.30;99.90
3614;DHT22;1821;50.936;6.854;2022-08-05T02:03:35;20.30;99.90
3614;DHT22;1821;50.936;6.854;2022-08-05T02:04:18;20.30;99.90
3614;DHT22;1821;50.936;6.854;2022-08-05T02:05:05;20.20;99.90
3614;DHT22;1821;50.936;6.854;2022-08-05T02:05:53;20.30;99.90
3614;DHT22;1821;50.936;6.854;2022-08-05T02:06:41;20.40;99.90
3614;DHT22;1821;50.936;6.854;2022-08-05T02:07:26;20.30;99.90
3614;DHT22;1821;50.936;6.854;2022-08-05T02:08:11;20.30;99.90
3614;DHT22;1821;50.936;6.854;2022-08-05T02:09:09;20.20;99.90
3614;DHT22;1821;50.936;6.854;2022-08-05T02:09:55;20.30;99.90
3614;DHT22;1821;50.936;6.854;2022-08-05T02:10:58;20.30;99.90
3614;DHT22;1821;50.936;6.854;2022-08-05T02:12:07;20.40;99.90
3614;DHT22;1821;50.936;6.854;2022-08-05T02:12:54;20.40;99.90
3614;DHT22;1821;50.936;6.854;2022-08-05T02:14:04;20.30;99.90
3614;DHT22;1821;50.936;6.854;2022-08-05T02:15:14;20.30;99.90
3614;DHT22;1821;50.936;6.854;2022-08-05T02:16:01;20.50;99.90
3614;DHT22;1821;50.936;6.854;2022-08-05T02:16:48;20.40;99.90
3614;DHT22;1821;50.936;6.854;2022-08-05T02:18:01;20.30;99.90
3614;DHT22;1821;50.936;6.854;2022-08-05T02:20:21;20.20;99.90
3614;DHT22;1821;50.936;6.854;2022-08-05T02:21:15;20.20;99.90
3614;DHT22;1821;50.936;6.854;2022-08-05T02:22:02;20.20;99.90
3614;DHT22;1821;50.936;6.854;2022-08-05T02:22:54;20.20;99.90
3614;DHT22;1821;50.936;6.854;2022-08-05T02:23:39;20.10;99.90
3614;DHT22;1821;50.936;6.854;2022-08-05T02:24:26;20.20;99.90
3614;DHT22;1821;50.936;6.854;2022-08-05T02:25:16;20.20;99.90
3614;DHT22;1821;50.936;6.854;2022-08-05T02:25:59;20.20;99.90
3614;DHT22;1821;50.936;6.854;2022-08-05T02:26:48;20.20;99.90
3614;DHT22;1821;50.936;6.854;2022-08-05T02:27:37;20.20;99.90
3614;DHT22;1821;50.936;6.854;2022-08-05T02:28:42;20.20;99.90
3614;DHT22;1821;50.936;6.854;2022-08-05T02:29:27;20.20;99.90
3614;DHT22;1821;50.936;6.854;2022-08-05T02:30:49;20.20;99.90
3614;DHT22;1821;50.936;6.854;2022-08-05T02:31:36;20.40;99.90
3614;DHT22;1821;50.936;6.854;2022-08-05T02:32:19;20.40;99.90
3614;DHT22;1821;50.936;6.854;2022-08-05T02:33:15;20.50;99.90
3614;DHT22;1821;50.936;6.854;2022-08-05T02:34:18;20.50;99.90
3614;DHT22;1821;50.936;6.854;2022-08-05T02:35:05;20.50;99.90
3614;DHT22;1821;50.936;6.854;2022-08-05T02:35:56;20.50;99.90
3614;DHT22;1821;50.936;6.854;2022-08-05T02:36:47;20.50;99.90
3614;DHT22;1821;50.936;6.854;2022-08-05T02:37:31;20.40;99.90
3614;DHT22;1821;50.936;6.854;2022-08-05T02:38:15;20.40;99.90
3614;DHT22;1821;50.936;6.854;2022-08-05T02:39:02;20.40;99.90
3614;DHT22;1821;50.936;6.854;2022-08-05T02:39:50;20.40;99.90
3614;DHT22;1821;50.936;6.854;2022-08-05T02:40:33;20.40;99.90
3614;DHT22;1821;50.936;6.854;2022-08-05T02:41:17;20.50;99.90
3614;DHT22;1821;50.936;6.854;2022-08-05T02:42:04;20.40;99.90
3614;DHT22;1821;50.936;6.854;2022-08-05T02:42:50;20.40;99.90
3614;DHT22;1821;50.936;6.854;2022-08-05T02:43:38;20.40;99.90
3614;DHT22;1821;50.936;6.854;2022-08-05T02:44:42;20.30;99.90
3614;DHT22;1821;50.936;6.854;2022-08-05T02:45:27;20.40;99.90
3614;DHT22;1821;50.936;6.854;2022-08-05T02:46:29;20.40;99.90
3614;DHT22;1821;50.936;6.854;2022-08-05T02:47:12;20.30;99.90
3614;DHT22;1821;50.936;6.854;2022-08-05T02:47:56;20.20;99.90
3614;DHT22;1821;50.936;6.854;2022-08-05T02:48:47;20.20;99.90
3614;DHT22;1821;50.936;6.854;2022-08-05T02:49:38;20.20;99.90
3614;DHT22;1821;50.936;6.854;2022-08-05T02:50:23;20.20;99.90
3614;DHT22;1821;50.936;6.854;2022-08-05T02:51:07;20.10;99.90
3614;DHT22;1821;50.936;6.854;2022-08-05T02:51:50;20.10;99.90
3614;DHT22;1821;50.936;6.854;2022-08-05T02:52:45;20.00;99.90
3614;DHT22;1821;50.936;6.854;2022-08-05T02:53:29;19.90;99.90
3614;DHT22;1821;50.936;6.854;2022-08-05T02:54:21;19.90;99.90
3614;DHT22;1821;50.936;6.854;2022-08-05T02:55:17;19.80;99.90
3614;DHT22;1821;50.936;6.854;2022-08-05T02:56:19;19.70;99.90
3614;DHT22;1821;50.936;6.854;2022-08-05T02:57:01;19.60;99.90
3614;DHT22;1821;50.936;6.854;2022-08-05T02:57:46;19.60;99.90
3614;DHT22;1821;50.936;6.854;2022-08-05T02:58:50;19.50;99.90
3614;DHT22;1821;50.936;6.854;2022-08-05T02:59:33;19.50;99.90
3614;DHT22;1821;50.936;6.854;2022-08-05T03:00:33;19.60;99.90
3614;DHT22;1821;50.936;6.854;2022-08-05T03:01:19;19.60;99.90
3614;DHT22;1821;50.936;6.854;2022-08-05T03:02:02;19.80;99.90
3614;DHT22;1821;50.936;6.854;2022-08-05T03:02:46;19.80;99.90
3614;DHT22;1821;50.936;6.854;2022-08-05T03:03:29;19.80;99.90
3614;DHT22;1821;50.936;6.854;2022-08-05T03:04:32;19.90;99.90
3614;DHT22;1821;50.936;6.854;2022-08-05T03:05:16;19.90;99.90
3614;DHT22;1821;50.936;6.854;2022-08-05T03:06:20;19.90;99.90
3614;DHT22;1821;50.936;6.854;2022-08-05T03:07:22;20.00;99.90
3614;DHT22;1821;50.936;6.854;2022-08-05T03:08:25;20.00;99.90
3614;DHT22;1821;50.936;6.854;2022-08-05T03:09:11;20.00;99.90
3614;DHT22;1821;50.936;6.854;2022-08-05T03:09:58;20.00;99.90
3614;DHT22;1821;50.936;6.854;2022-08-05T03:10:44;20.00;99.90
3614;DHT22;1821;50.936;6.854;2022-08-05T03:11:45;20.00;99.90
3614;DHT22;1821;50.936;6.854;2022-08-05T03:12:38;19.90;99.90
3614;DHT22;1821;50.936;6.854;2022-08-05T03:13:21;19.90;99.90
3614;DHT22;1821;50.936;6.854;2022-08-05T03:14:23;19.90;99.90
3614;DHT22;1821;50.936;6.854;2022-08-05T03:15:08;19.90;99.90
3614;DHT22;1821;50.936;6.854;2022-08-05T03:15:52;20.00;99.90
3614;DHT22;1821;50.936;6.854;2022-08-05T03:16:36;20.10;99.90
3614;DHT22;1821;50.936;6.854;2022-08-05T03:17:18;20.00;99.90
3614;DHT22;1821;50.936;6.854;2022-08-05T03:18:02;20.10;99.90
3614;DHT22;1821;50.936;6.854;2022-08-05T03:18:44;20.10;99.90
3614;DHT22;1821;50.936;6.854;2022-08-05T03:19:29;20.10;99.90
3614;DHT22;1821;50.936;6.854;2022-08-05T03:20:16;20.20;99.90
3614;DHT22;1821;50.936;6.854;2022-08-05T03:20:59;20.00;99.90
3614;DHT22;1821;50.936;6.854;2022-08-05T03:21:41;20.00;99.90
3614;DHT22;1821;50.936;6.854;2022-08-05T03:22:30;20.00;99.90
3614;DHT22;1821;50.936;6.854;2022-08-05T03:23:13;20.00;99.90
3614;DHT22;1821;50.936;6.854;2022-08-05T03:23:57;20.00;99.90
3614;DHT22;1821;50.936;6.854;2022-08-05T03:24:41;19.70;99.90
3614;DHT22;1821;50.936;6.854;2022-08-05T03:25:28;19.90;99.90
3614;DHT22;1821;50.936;6.854;2022-08-05T03:26:31;19.90;99.90
3614;DHT22;1821;50.936;6.854;2022-08-05T03:27:13;19.90;99.90
3614;DHT22;1821;50.936;6.854;2022-08-05T03:27:56;19.90;99.90
3614;DHT22;1821;50.936;6.854;2022-08-05T03:28:41;19.90;99.90
3614;DHT22;1821;50.936;6.854;2022-08-05T03:29:22;20.00;99.90
3614;DHT22;1821;50.936;6.854;2022-08-05T03:30:25;20.00;99.90
3614;DHT22;1821;50.936;6.854;2022-08-05T03:31:14;20.00;99.90
3614;DHT22;1821;50.936;6.854;2022-08-05T03:32:17;20.00;99.90
3614;DHT22;1821;50.936;6.854;2022-08-05T03:33:01;20.10;99.90
3614;DHT22;1821;50.936;6.854;2022-08-05T03:33:44;20.10;99.90
3614;DHT22;1821;50.936;6.854;2022-08-05T03:34:34;20.10;99.90
3614;DHT22;1821;50.936;6.854;2022-08-05T03:35:17;20.10;99.90
3614;DHT22;1821;50.936;6.854;2022-08-05T03:36:00;20.20;99.90
3614;DHT22;1821;50.936;6.854;2022-08-05T03:36:47;20.10;99.90
3614;DHT22;1821;50.936;6.854;2022-08-05T03:37:32;20.20;99.90
3614;DHT22;1821;50.936;6.854;2022-08-05T03:38:27;20.10;99.90
3614;DHT22;1821;50.936;6.854;2022-08-05T03:39:14;20.20;99.90
3614;DHT22;1821;50.936;6.854;2022-08-05T03:40:08;20.20;99.90
3614;DHT22;1821;50.936;6.854;2022-08-05T03:40:52;20.20;99.90
3614;DHT22;1821;50.936;6.854;2022-08-05T03:41:38;20.20;99.90
3614;DHT22;1821;50.936;6.854;2022-08-05T03:42:27;20.20;99.90
3614;DHT22;1821;50.936;6.854;2022-08-05T03:43:22;20.20;99.90
3614;DHT22;1821;50.936;6.854;2022-08-05T03:44:27;20.20;99.90
3614;DHT22;1821;50.936;6.854;2022-08-05T03:45:09;20.20;99.90
3614;DHT22;1821;50.936;6.854;2022-08-05T03:46:04;20.20;99.90
3614;DHT22;1821;50.936;6.854;2022-08-05T03:46:48;20.20;99.90
3614;DHT22;1821;50.936;6.854;2022-08-05T03:47:30;20.30;99.90
3614;DHT22;1821;50.936;6.854;2022-08-05T03:48:16;20.10;99.90
3614;DHT22;1821;50.936;6.854;2022-08-05T03:49:03;20.20;99.90
3614;DHT22;1821;50.936;6.854;2022-08-05T03:49:45;20.20;99.90
3614;DHT22;1821;50.936;6.854;2022-08-05T03:50:42;20.20;99.90
3614;DHT22;1821;50.936;6.854;2022-08-05T03:51:53;20.20;99.90
3614;DHT22;1821;50.936;6.854;2022-08-05T03:52:57;20.20;99.90
3614;DHT22;1821;50.936;6.854;2022-08-05T03:55:14;20.20;99.90
3614;DHT22;1821;50.936;6.854;2022-08-05T03:56:31;20.20;99.90
3614;DHT22;1821;50.936;6.854;2022-08-05T03:57:17;20.10;99.90
3614;DHT22;1821;50.936;6.854;2022-08-05T03:58:01;20.10;99.90
3614;DHT22;1821;50.936;6.854;2022-08-05T03:58:46;20.10;99.90
3614;DHT22;1821;50.936;6.854;2022-08-05T03:59:39;20.20;99.90
3614;DHT22;1821;50.936;6.854;2022-08-05T04:00:35;20.20;99.90
3614;DHT22;1821;50.936;6.854;2022-08-05T04:01:22;20.20;99.90
3614;DHT22;1821;50.936;6.854;2022-08-05T04:02:06;20.20;99.90
3614;DHT22;1821;50.936;6.854;2022-08-05T04:02:59;20.20;99.90
3614;DHT22;1821;50.936;6.854;2022-08-05T04:03:46;20.10;99.90
3614;DHT22;1821;50.936;6.854;2022-08-05T04:04:49;20.20;99.90
3614;DHT22;1821;50.936;6.854;2022-08-05T04:05:35;20.20;99.90
3614;DHT22;1821;50.936;6.854;2022-08-05T04:06:22;20.20;99.90
3614;DHT22;1821;50.936;6.854;2022-08-05T04:07:06;20.20;99.90
3614;DHT22;1821;50.936;6.854;2022-08-05T04:07:49;20.20;99.90
3614;DHT22;1821;50.936;6.854;2022-08-05T04:08:39;20.20;99.90
3614;DHT22;1821;50.936;6.854;2022-08-05T04:09:21;20.20;99.90
3614;DHT22;1821;50.936;6.854;2022-08-05T04:10:08;20.20;99.90
3614;DHT22;1821;50.936;6.854;2022-08-05T04:10:59;20.20;99.90
3614;DHT22;1821;50.936;6.854;2022-08-05T04:11:42;20.20;99.90
3614;DHT22;1821;50.936;6.854;2022-08-05T04:12:32;20.20;99.90
3614;DHT22;1821;50.936;6.854;2022-08-05T04:13:15;20.20;99.90
3614;DHT22;1821;50.936;6.854;2022-08-05T04:13:59;20.20;99.90
3614;DHT22;1821;50.936;6.854;2022-08-05T04:14:42;20.20;99.90
3614;DHT22;1821;50.936;6.854;2022-08-05T04:15:28;20.20;99.90
3614;DHT22;1821;50.936;6.854;2022-08-05T04:16:16;20.20;99.90
3614;DHT22;1821;50.936;6.854;2022-08-05T04:17:13;20.20;99.90
3614;DHT22;1821;50.936;6.854;2022-08-05T04:17:56;20.20;99.90
3614;DHT22;1821;50.936;6.854;2022-08-05T04:18:44;20.20;99.90
3614;DHT22;1821;50.936;6.854;2022-08-05T04:19:44;20.20;99.90
3614;DHT22;1821;50.936;6.854;2022-08-05T04:20:34;20.20;99.90
3614;DHT22;1821;50.936;6.854;2022-08-05T04:21:16;20.20;99.90
3614;DHT22;1821;50.936;6.854;2022-08-05T04:22:18;20.20;99.90
3614;DHT22;1821;50.936;6.854;2022-08-05T04:23:01;20.20;99.90
3614;DHT22;1821;50.936;6.854;2022-08-05T04:23:44;20.20;99.90
3614;DHT22;1821;50.936;6.854;2022-08-05T04:24:46;20.20;99.90
3614;DHT22;1821;50.936;6.854;2022-08-05T04:25:33;20.10;99.90
3614;DHT22;1821;50.936;6.854;2022-08-05T04:26:35;20.10;99.90
3614;DHT22;1821;50.936;6.854;2022-08-05T04:27:17;20.10;99.90
3614;DHT22;1821;50.936;6.854;2022-08-05T04:27:59;20.10;99.90
3614;DHT22;1821;50.936;6.854;2022-08-05T04:28:53;20.10;99.90
3614;DHT22;1821;50.936;6.854;2022-08-05T04:29:35;20.10;99.90
3614;DHT22;1821;50.936;6.854;2022-08-05T04:30:17;20.00;99.90
3614;DHT22;1821;50.936;6.854;2022-08-05T04:30:59;20.10;99.90
3614;DHT22;1821;50.936;6.854;2022-08-05T04:31:42;20.00;99.90
3614;DHT22;1821;50.936;6.854;2022-08-05T04:32:24;19.90;99.90
3614;DHT22;1821;50.936;6.854;2022-08-05T04:33:14;19.90;99.90
3614;DHT22;1821;50.936;6.854;2022-08-05T04:34:01;19.90;99.90
3614;DHT22;1821;50.936;6.854;2022-08-05T04:35:03;19.80;99.90
3614;DHT22;1821;50.936;6.854;2022-08-05T04:35:46;19.90;99.90
3614;DHT22;1821;50.936;6.854;2022-08-05T04:36:48;19.90;99.90
3614;DHT22;1821;50.936;6.854;2022-08-05T04:37:31;19.80;99.90
3614;DHT22;1821;50.936;6.854;2022-08-05T04:38:34;19.90;99.90
3614;DHT22;1821;50.936;6.854;2022-08-05T04:39:20;19.90;99.90
3614;DHT22;1821;50.936;6.854;2022-08-05T04:40:03;19.90;99.90
3614;DHT22;1821;50.936;6.854;2022-08-05T04:40:46;20.00;99.90
3614;DHT22;1821;50.936;6.854;2022-08-05T04:41:31;19.90;99.90
3614;DHT22;1821;50.936;6.854;2022-08-05T04:42:18;19.90;99.90
3614;DHT22;1821;50.936;6.854;2022-08-05T04:43:06;20.00;99.90
3614;DHT22;1821;50.936;6.854;2022-08-05T04:43:56;19.90;99.90
3614;DHT22;1821;50.936;6.854;2022-08-05T04:44:39;20.00;99.90
3614;DHT22;1821;50.936;6.854;2022-08-05T04:45:21;20.00;99.90
3614;DHT22;1821;50.936;6.854;2022-08-05T04:46:26;20.00;99.90
3614;DHT22;1821;50.936;6.854;2022-08-05T04:47:09;19.90;99.90
3614;DHT22;1821;50.936;6.854;2022-08-05T04:47:52;20.00;99.90
3614;DHT22;1821;50.936;6.854;2022-08-05T04:48:38;20.00;99.90
3614;DHT22;1821;50.936;6.854;2022-08-05T04:49:22;20.00;99.90
3614;DHT22;1821;50.936;6.854;2022-08-05T04:50:19;20.10;99.90
3614;DHT22;1821;50.936;6.854;2022-08-05T04:51:21;20.00;99.90
3614;DHT22;1821;50.936;6.854;2022-08-05T04:52:04;20.10;99.90
3614;DHT22;1821;50.936;6.854;2022-08-05T04:52:48;20.10;99.90
3614;DHT22;1821;50.936;6.854;2022-08-05T04:53:30;20.10;99.90
3614;DHT22;1821;50.936;6.854;2022-08-05T04:54:15;20.10;99.90
3614;DHT22;1821;50.936;6.854;2022-08-05T04:54:59;20.10;99.90
3614;DHT22;1821;50.936;6.854;2022-08-05T04:55:55;20.00;99.90
3614;DHT22;1821;50.936;6.854;2022-08-05T04:56:57;20.00;99.90
3614;DHT22;1821;50.936;6.854;2022-08-05T04:57:43;20.00;99.90
3614;DHT22;1821;50.936;6.854;2022-08-05T04:58:34;20.00;99.90
3614;DHT22;1821;50.936;6.854;2022-08-05T04:59:17;20.10;99.90
3614;DHT22;1821;50.936;6.854;2022-08-05T05:00:05;20.00;99.90
3614;DHT22;1821;50.936;6.854;2022-08-05T05:00:48;19.90;99.90
3614;DHT22;1821;50.936;6.854;2022-08-05T05:01:31;19.90;99.90
3614;DHT22;1821;50.936;6.854;2022-08-05T05:02:33;19.90;99.90
3614;DHT22;1821;50.936;6.854;2022-08-05T05:03:23;19.90;99.90
3614;DHT22;1821;50.936;6.854;2022-08-05T05:04:05;20.00;99.90
3614;DHT22;1821;50.936;6.854;2022-08-05T05:04:47;20.00;99.90
3614;DHT22;1821;50.936;6.854;2022-08-05T05:05:32;20.00;99.90
3614;DHT22;1821;50.936;6.854;2022-08-05T05:06:34;20.00;99.90
3614;DHT22;1821;50.936;6.854;2022-08-05T05:07:25;20.40;99.90
3614;DHT22;1821;50.936;6.854;2022-08-05T05:08:13;19.80;99.90
3614;DHT22;1821;50.936;6.854;2022-08-05T05:09:13;19.90;99.90
3614;DHT22;1821;50.936;6.854;2022-08-05T05:09:59;19.90;99.90
3614;DHT22;1821;50.936;6.854;2022-08-05T05:10:45;19.90;99.90
3614;DHT22;1821;50.936;6.854;2022-08-05T05:11:37;20.00;99.90
3614;DHT22;1821;50.936;6.854;2022-08-05T05:12:36;20.00;99.90
3614;DHT22;1821;50.936;6.854;2022-08-05T05:13:18;20.00;99.90
3614;DHT22;1821;50.936;6.854;2022-08-05T05:14:01;20.10;99.90
3614;DHT22;1821;50.936;6.854;2022-08-05T05:14:43;20.10;99.90
3614;DHT22;1821;50.936;6.854;2022-08-05T05:15:31;20.10;99.90
3614;DHT22;1821;50.936;6.854;2022-08-05T05:16:34;20.10;99.90
3614;DHT22;1821;50.936;6.854;2022-08-05T05:17:16;20.10;99.90
3614;DHT22;1821;50.936;6.854;2022-08-05T05:18:05;20.00;99.90
3614;DHT22;1821;50.936;6.854;2022-08-05T05:18:46;20.00;99.90
3614;DHT22;1821;50.936;6.854;2022-08-05T05:19:48;20.10;99.90
3614;DHT22;1821;50.936;6.854;2022-08-05T05:20:31;20.00;99.90
3614;DHT22;1821;50.936;6.854;2022-08-05T05:21:13;20.00;99.90
3614;DHT22;1821;50.936;6.854;2022-08-05T05:21:55;20.00;99.90
3614;DHT22;1821;50.936;6.854;2022-08-05T05:22:44;20.10;99.90
3614;DHT22;1821;50.936;6.854;2022-08-05T05:23:25;20.00;99.90
3614;DHT22;1821;50.936;6.854;2022-08-05T05:24:27;20.00;99.90
3614;DHT22;1821;50.936;6.854;2022-08-05T05:25:30;19.90;99.90
3614;DHT22;1821;50.936;6.854;2022-08-05T05:26:21;20.00;99.90
3614;DHT22;1821;50.936;6.854;2022-08-05T05:27:13;19.90;99.90
3614;DHT22;1821;50.936;6.854;2022-08-05T05:27:57;19.90;99.90
3614;DHT22;1821;50.936;6.854;2022-08-05T05:28:39;19.90;99.90
3614;DHT22;1821;50.936;6.854;2022-08-05T05:29:25;19.80;99.90
3614;DHT22;1821;50.936;6.854;2022-08-05T05:30:27;19.90;99.90
3614;DHT22;1821;50.936;6.854;2022-08-05T05:31:11;20.00;99.90
3614;DHT22;1821;50.936;6.854;2022-08-05T05:31:53;20.00;99.90
3614;DHT22;1821;50.936;6.854;2022-08-05T05:32:36;20.10;99.90